Time;durP1;ratioP1;P1;durP2;ratioP2;P2;SDS_P1;SDS_P2;PMS_P1;PMS_P2;Temp;Humidity;BMP_temperature;BMP_pressure;BME280_temperature;BME280_humidity;BME280_pressure;Samples;Min_cycle;Max_cycle;Signal;HPM_P1;HPM_P2
2022/09/23 00:01:45;;;;;;;12.50;4.35;;;13.80;99.90;;;;;;4184559;28;20179;-88
2022/09/23 00:03:47;;;;;;;7.20;4.18;;;13.80;99.90;;;;;;4185662;28;20166;-88
2022/09/23 00:06:00;;;;;;;9.23;3.92;;;13.90;99.90;;;;;;4168024;28;20652;-88
2022/09/23 00:08:01;;;;;;;10.43;4.03;;;13.90;99.90;;;;;;4168877;28;20176;-88
2022/09/23 00:10:01;;;;;;;7.82;3.75;;;13.80;99.90;;;;;;4167230;28;20262;-88
2022/09/23 00:12:02;;;;;;;10.10;4.10;;;13.90;99.90;;;;;;4168198;28;20176;-88
2022/09/23 00:14:03;;;;;;;13.27;4.43;;;13.90;99.90;;;;;;4167962;28;20263;-87
2022/09/23 00:16:06;;;;;;;10.13;3.88;;;13.90;99.90;;;;;;4185078;28;20226;-88
2022/09/23 00:18:07;;;;;;;6.68;3.75;;;13.80;99.90;;;;;;4185400;28;20345;-87
2022/09/23 00:20:09;;;;;;;10.57;4.55;;;13.80;99.90;;;;;;4167637;28;20192;-88
2022/09/23 00:22:09;;;;;;;8.73;4.30;;;13.80;99.90;;;;;;4167624;28;20237;-88
2022/09/23 00:24:10;;;;;;;7.18;4.00;;;13.70;99.90;;;;;;4167477;28;20168;-87
2022/09/23 00:26:14;;;;;;;11.57;4.22;;;13.70;99.90;;;;;;4170159;28;20180;-87
2022/09/23 00:28:15;;;;;;;12.95;4.93;;;13.70;99.90;;;;;;4167518;28;20165;-87
2022/09/23 00:30:17;;;;;;;9.60;4.18;;;13.60;99.90;;;;;;4166182;28;20227;-88
2022/09/23 00:32:17;;;;;;;8.70;4.60;;;13.60;99.90;;;;;;4183845;28;20674;-87
2022/09/23 00:34:18;;;;;;;10.23;4.70;;;13.60;99.90;;;;;;4167183;28;20235;-87
2022/09/23 00:36:19;;;;;;;8.70;4.25;;;13.70;99.90;;;;;;4183280;28;20172;-88
2022/09/23 00:38:19;;;;;;;5.60;4.00;;;13.70;99.90;;;;;;4168500;28;20239;-87
2022/09/23 00:40:20;;;;;;;16.70;4.45;;;13.70;99.90;;;;;;4168615;28;20204;-88
2022/09/23 00:42:22;;;;;;;12.77;4.38;;;13.60;99.90;;;;;;4166900;28;20180;-88
2022/09/23 00:44:41;;;;;;;7.28;4.05;;;13.60;99.90;;;;;;4167156;28;20172;-88
2022/09/23 00:46:42;;;;;;;8.27;4.30;;;13.60;99.90;;;;;;4183702;28;20172;-88
2022/09/23 00:48:43;;;;;;;14.43;4.30;;;13.50;99.90;;;;;;4166060;28;20192;-87
2022/09/23 00:50:50;;;;;;;7.32;4.03;;;13.50;99.90;;;;;;4166090;28;20172;-87
2022/09/23 00:52:53;;;;;;;7.57;4.10;;;13.50;99.90;;;;;;4184089;28;20682;-88
2022/09/23 00:54:56;;;;;;;11.80;4.78;;;13.60;99.90;;;;;;4167796;28;20176;-88
2022/09/23 00:56:58;;;;;;;9.57;4.60;;;13.60;99.90;;;;;;4166503;28;20168;-88
2022/09/23 00:59:00;;;;;;;10.18;4.68;;;13.60;99.90;;;;;;4167569;28;20196;-87
2022/09/23 01:01:02;;;;;;;13.65;4.72;;;13.60;99.90;;;;;;4165785;28;20172;-89
2022/09/23 01:03:05;;;;;;;7.97;4.93;;;13.60;99.90;;;;;;4183880;28;20172;-89
2022/09/23 01:05:07;;;;;;;8.70;4.28;;;13.50;99.90;;;;;;4167465;28;20194;-87
2022/09/23 01:07:07;;;;;;;11.07;4.28;;;13.50;99.90;;;;;;4184024;28;20530;-88
2022/09/23 01:09:08;;;;;;;11.55;4.32;;;13.50;99.90;;;;;;4182263;28;20207;-88
2022/09/23 01:11:32;;;;;;;15.38;5.50;;;13.50;99.90;;;;;;4166956;28;20176;-88
2022/09/23 01:13:48;;;;;;;9.68;5.18;;;13.50;99.90;;;;;;4166468;28;20177;-88
2022/09/23 01:15:58;;;;;;;9.10;4.45;;;13.50;99.90;;;;;;4183392;28;20225;-88
2022/09/23 01:18:20;;;;;;;10.18;4.50;;;13.50;99.90;;;;;;4183852;28;20206;-87
2022/09/23 01:20:40;;;;;;;8.50;4.75;;;13.50;99.90;;;;;;4167985;28;20184;-88
2022/09/23 01:22:55;;;;;;;13.55;4.95;;;13.50;99.90;;;;;;4182248;28;20180;-88
2022/09/23 01:25:27;;;;;;;7.78;4.90;;;13.50;99.90;;;;;;4166145;28;20259;-87
2022/09/23 01:27:55;;;;;;;10.48;5.35;;;13.50;99.90;;;;;;4182608;28;20167;-88
2022/09/23 01:30:05;;;;;;;13.27;4.85;;;13.40;99.90;;;;;;4167001;28;20196;-87
2022/09/23 01:32:25;;;;;;;9.55;4.47;;;13.30;99.90;;;;;;4166972;28;20172;-88
2022/09/23 01:34:37;;;;;;;7.80;4.13;;;13.30;99.90;;;;;;4183070;28;20171;-88
2022/09/23 01:36:44;;;;;;;9.13;4.53;;;13.30;99.90;;;;;;4184938;28;20159;-88
2022/09/23 01:38:59;;;;;;;9.68;4.47;;;13.20;99.90;;;;;;4183003;28;20670;-88
2022/09/23 01:41:03;;;;;;;8.23;4.45;;;13.10;99.90;;;;;;4183458;28;20176;-88
2022/09/23 01:43:14;;;;;;;9.10;4.50;;;13.00;99.90;;;;;;4183553;28;20182;-88
2022/09/23 01:45:40;;;;;;;10.27;5.32;;;13.00;99.90;;;;;;4165767;28;20703;-88
2022/09/23 01:47:57;;;;;;;11.10;4.90;;;13.00;99.90;;;;;;4180494;28;20614;-88
2022/09/23 01:52:38;;;;;;;7.68;4.30;;;13.00;99.90;;;;;;4182675;28;20175;-87
2022/09/23 01:54:49;;;;;;;10.73;4.78;;;13.00;99.90;;;;;;4168405;28;20180;-88
2022/09/23 01:56:57;;;;;;;12.10;5.28;;;12.90;99.90;;;;;;4181422;28;20168;-88
2022/09/23 01:59:34;;;;;;;10.85;5.32;;;12.90;99.90;;;;;;4167101;28;20195;-88
2022/09/23 02:01:41;;;;;;;9.13;5.05;;;12.70;99.90;;;;;;4157359;28;20271;-88
2022/09/23 02:03:58;;;;;;;10.38;5.70;;;12.70;99.90;;;;;;4181074;28;20270;-88
2022/09/23 02:06:04;;;;;;;8.93;4.82;;;12.70;99.90;;;;;;4164564;28;20172;-88
2022/09/23 02:08:13;;;;;;;9.48;4.85;;;12.60;99.90;;;;;;4166062;28;20204;-88
2022/09/23 02:10:29;;;;;;;8.35;5.03;;;12.60;99.90;;;;;;4165371;28;20179;-88
2022/09/23 02:12:34;;;;;;;10.50;4.72;;;12.60;99.90;;;;;;4181482;28;20646;-87
2022/09/23 02:14:44;;;;;;;9.63;4.70;;;12.50;99.90;;;;;;4181103;28;20187;-88
2022/09/23 02:16:48;;;;;;;8.00;4.78;;;12.50;99.90;;;;;;4182152;28;20162;-88
2022/09/23 02:18:57;;;;;;;9.60;4.60;;;12.40;99.90;;;;;;4181847;28;20211;-87
2022/09/23 02:21:02;;;;;;;8.32;4.28;;;12.50;99.90;;;;;;4164819;28;20172;-88
2022/09/23 02:23:28;;;;;;;10.40;4.97;;;12.50;99.90;;;;;;4165979;28;20521;-87
2022/09/23 02:25:38;;;;;;;10.60;4.57;;;12.60;99.90;;;;;;4183368;28;20174;-88
2022/09/23 02:27:56;;;;;;;7.13;4.07;;;12.60;99.90;;;;;;4166484;28;20742;-88
2022/09/23 02:30:04;;;;;;;11.05;4.80;;;12.60;99.90;;;;;;4182260;28;20664;-88
2022/09/23 02:32:25;;;;;;;8.82;4.65;;;12.60;99.90;;;;;;4181526;28;20167;-88
2022/09/23 02:34:46;;;;;;;8.50;4.60;;;12.70;99.90;;;;;;4164839;28;20227;-87
2022/09/23 02:37:00;;;;;;;11.57;5.25;;;12.60;99.90;;;;;;4180847;28;20875;-88
2022/09/23 02:39:07;;;;;;;10.05;4.05;;;12.70;99.90;;;;;;4183178;28;20207;-88
2022/09/23 02:41:22;;;;;;;7.82;4.63;;;12.70;99.90;;;;;;4164841;28;20242;-88
2022/09/23 02:43:34;;;;;;;10.82;4.30;;;12.80;99.90;;;;;;4166811;28;20187;-88
2022/09/23 02:45:37;;;;;;;7.68;4.60;;;12.60;99.90;;;;;;4181461;28;20192;-88
2022/09/23 02:47:42;;;;;;;7.82;4.57;;;12.60;99.90;;;;;;4165597;28;20226;-88
2022/09/23 02:49:43;;;;;;;10.20;4.57;;;12.70;99.90;;;;;;4164800;28;20210;-88
2022/09/23 02:51:44;;;;;;;9.40;4.90;;;12.70;99.90;;;;;;4181396;28;20168;-88
2022/09/23 02:53:46;;;;;;;9.63;4.20;;;12.60;99.90;;;;;;4164299;28;20188;-87
2022/09/23 02:55:47;;;;;;;7.65;4.47;;;12.60;99.90;;;;;;4180721;28;20624;-88
2022/09/23 02:57:48;;;;;;;8.52;4.70;;;12.60;99.90;;;;;;4180657;28;20214;-87
2022/09/23 02:59:48;;;;;;;10.60;5.15;;;12.50;99.90;;;;;;4166305;28;20212;-88
2022/09/23 03:02:24;;;;;;;7.50;4.85;;;12.50;99.90;;;;;;4166152;28;20177;-88
2022/09/23 03:04:55;;;;;;;9.48;4.20;;;12.50;99.90;;;;;;4183850;28;20175;-88
2022/09/23 03:07:31;;;;;;;11.75;5.30;;;12.50;99.90;;;;;;4165627;28;20160;-88
2022/09/23 03:09:37;;;;;;;8.90;4.45;;;12.40;99.90;;;;;;4149863;28;20696;-88
2022/09/23 03:11:41;;;;;;;9.80;4.80;;;12.40;99.90;;;;;;4181944;28;20218;-88
2022/09/23 03:13:55;;;;;;;9.80;4.68;;;12.40;99.90;;;;;;4166548;28;20184;-88
2022/09/23 03:16:13;;;;;;;10.20;4.50;;;12.40;99.90;;;;;;4167819;28;20187;-88
2022/09/23 03:18:39;;;;;;;9.82;4.68;;;12.40;99.90;;;;;;4167916;28;20218;-88
2022/09/23 03:20:52;;;;;;;7.13;4.55;;;12.40;99.90;;;;;;4183682;28;20171;-88
2022/09/23 03:22:59;;;;;;;8.60;4.63;;;12.30;99.90;;;;;;4169626;28;20722;-88
2022/09/23 03:25:07;;;;;;;8.15;4.72;;;12.30;99.90;;;;;;4169830;28;20152;-88
2022/09/23 03:27:12;;;;;;;9.30;4.15;;;12.30;99.90;;;;;;4184934;28;20312;-87
2022/09/23 03:29:15;;;;;;;12.90;4.97;;;12.40;99.90;;;;;;4167891;28;20663;-87
2022/09/23 03:31:16;;;;;;;8.25;5.03;;;12.40;99.90;;;;;;4184500;28;20167;-88
2022/09/23 03:33:19;;;;;;;9.13;4.47;;;12.50;99.90;;;;;;4185027;28;20186;-88
2022/09/23 03:35:25;;;;;;;12.18;4.95;;;12.50;99.90;;;;;;4168447;28;20258;-87
2022/09/23 03:37:38;;;;;;;8.98;4.43;;;12.50;99.90;;;;;;4167338;28;20192;-87
2022/09/23 03:39:47;;;;;;;7.05;4.65;;;12.50;99.90;;;;;;4169333;28;20277;-87
2022/09/23 03:41:54;;;;;;;13.50;5.55;;;12.50;99.90;;;;;;4168078;28;20269;-88
2022/09/23 03:43:59;;;;;;;7.28;4.38;;;12.50;99.90;;;;;;4167590;28;20221;-87
2022/09/23 03:46:00;;;;;;;9.25;4.63;;;12.50;99.90;;;;;;4168792;28;20235;-87
2022/09/23 03:48:01;;;;;;;9.23;4.50;;;12.50;99.90;;;;;;4185002;28;20532;-88
2022/09/23 03:50:02;;;;;;;8.98;4.60;;;12.60;99.90;;;;;;4171488;28;20192;-88
2022/09/23 03:52:02;;;;;;;7.90;4.32;;;12.60;99.90;;;;;;4167648;28;20180;-88
2022/09/23 03:54:03;;;;;;;8.75;4.57;;;12.70;99.90;;;;;;4183085;28;20171;-88
2022/09/23 03:56:04;;;;;;;11.43;4.50;;;12.60;99.90;;;;;;4168043;28;20215;-89
2022/09/23 03:58:06;;;;;;;7.28;4.55;;;12.60;99.90;;;;;;4185830;28;20280;-88
2022/09/23 04:00:08;;;;;;;7.47;4.20;;;12.60;99.90;;;;;;4184933;28;20643;-88
2022/09/23 04:02:16;;;;;;;7.07;4.35;;;12.60;99.90;;;;;;4184749;28;20632;-88
2022/09/23 04:04:17;;;;;;;6.30;4.38;;;12.60;99.90;;;;;;4184482;28;20274;-89
2022/09/23 04:06:18;;;;;;;8.98;4.18;;;12.60;99.90;;;;;;4166591;28;20207;-88
2022/09/23 04:08:19;;;;;;;7.90;4.40;;;12.60;99.90;;;;;;4184570;28;20184;-88
2022/09/23 04:10:20;;;;;;;8.88;4.72;;;12.50;99.90;;;;;;4166474;28;20194;-88
2022/09/23 04:12:20;;;;;;;11.25;4.72;;;12.60;99.90;;;;;;4184644;28;20175;-88
2022/09/23 04:14:29;;;;;;;6.82;4.15;;;12.50;99.90;;;;;;4168083;28;20230;-88
2022/09/23 04:16:30;;;;;;;7.22;4.60;;;12.50;99.90;;;;;;4166812;28;20180;-88
2022/09/23 04:18:30;;;;;;;12.30;4.20;;;12.40;99.90;;;;;;4182558;28;20260;-88
2022/09/23 04:20:31;;;;;;;6.45;4.35;;;12.40;99.90;;;;;;4166345;28;20276;-88
2022/09/23 04:22:33;;;;;;;11.20;4.40;;;12.40;99.90;;;;;;4167011;28;20172;-88
2022/09/23 04:24:34;;;;;;;8.55;4.25;;;12.40;99.90;;;;;;4182053;28;20675;-88
2022/09/23 04:26:36;;;;;;;7.05;4.15;;;12.40;99.90;;;;;;4167024;28;20180;-88
2022/09/23 04:28:37;;;;;;;7.45;4.05;;;12.40;99.90;;;;;;4169334;28;20220;-88
2022/09/23 04:30:41;;;;;;;10.07;4.10;;;12.40;99.90;;;;;;4184146;28;20191;-87
2022/09/23 04:32:41;;;;;;;9.32;4.32;;;12.30;99.90;;;;;;4168260;28;20172;-88
2022/09/23 04:34:42;;;;;;;10.30;4.18;;;12.40;99.90;;;;;;4184066;28;20222;-88
2022/09/23 04:36:44;;;;;;;7.38;3.83;;;12.40;99.90;;;;;;4169520;28;20200;-88
2022/09/23 04:38:46;;;;;;;7.95;4.13;;;12.40;99.90;;;;;;4166653;28;20212;-88
2022/09/23 04:40:47;;;;;;;11.00;4.57;;;12.50;99.90;;;;;;4166058;28;20168;-87
2022/09/23 04:42:49;;;;;;;12.55;4.28;;;12.50;99.90;;;;;;4167247;28;20498;-87
2022/09/23 04:44:49;;;;;;;8.75;4.63;;;12.40;99.90;;;;;;4185911;28;20171;-88
2022/09/23 04:46:50;;;;;;;6.55;4.28;;;12.40;99.90;;;;;;4184967;28;20254;-88
2022/09/23 04:48:51;;;;;;;6.18;4.18;;;12.40;99.90;;;;;;4183429;28;20184;-87
2022/09/23 04:50:51;;;;;;;8.93;3.92;;;12.40;99.90;;;;;;4167109;28;20541;-88
2022/09/23 04:52:52;;;;;;;8.43;4.07;;;12.40;99.90;;;;;;4183539;28;20171;-88
2022/09/23 04:54:53;;;;;;;13.60;4.47;;;12.40;99.90;;;;;;4167635;28;20195;-88
2022/09/23 04:56:54;;;;;;;7.00;4.00;;;12.40;99.90;;;;;;4182066;28;20831;-88
2022/09/23 04:59:00;;;;;;;7.03;4.35;;;12.40;99.90;;;;;;4169221;28;20212;-88
2022/09/23 05:01:13;;;;;;;8.07;4.30;;;12.40;99.90;;;;;;4166981;28;20647;-88
2022/09/23 05:03:13;;;;;;;7.43;4.30;;;12.40;99.90;;;;;;4166231;28;20172;-88
2022/09/23 05:05:19;;;;;;;6.30;4.03;;;12.30;99.90;;;;;;4184204;28;20178;-88
2022/09/23 05:07:20;;;;;;;8.70;4.35;;;12.30;99.90;;;;;;4166308;28;20172;-87
2022/09/23 05:09:21;;;;;;;7.07;4.28;;;12.30;99.90;;;;;;4183809;28;20186;-88
2022/09/23 05:11:23;;;;;;;8.50;4.32;;;12.30;99.90;;;;;;4167780;28;20217;-87
2022/09/23 05:13:24;;;;;;;6.63;4.20;;;12.20;99.90;;;;;;4165789;28;20176;-87
2022/09/23 05:15:25;;;;;;;7.72;4.47;;;12.30;99.90;;;;;;4183094;28;20179;-87
2022/09/23 05:17:28;;;;;;;9.52;4.82;;;12.20;99.90;;;;;;4182064;28;20202;-88
2022/09/23 05:19:29;;;;;;;9.57;4.28;;;12.10;99.90;;;;;;4183430;28;20203;-88
2022/09/23 05:21:30;;;;;;;16.02;4.30;;;12.20;99.90;;;;;;4184040;28;20167;-87
2022/09/23 05:23:31;;;;;;;7.57;3.90;;;12.20;99.90;;;;;;4166035;28;20176;-87
2022/09/23 05:25:32;;;;;;;9.15;4.45;;;12.20;99.90;;;;;;4182644;28;20167;-87
2022/09/23 05:27:32;;;;;;;10.52;4.68;;;12.20;99.90;;;;;;4182620;28;20180;-87
2022/09/23 05:29:33;;;;;;;9.35;4.60;;;12.30;99.90;;;;;;4183490;28;20270;-86
2022/09/23 05:31:35;;;;;;;6.20;4.10;;;12.30;99.90;;;;;;4185058;28;20187;-87
2022/09/23 05:33:36;;;;;;;9.20;4.00;;;12.30;99.90;;;;;;4184323;28;20214;-87
2022/09/23 05:35:37;;;;;;;7.80;4.13;;;12.30;99.90;;;;;;4183901;28;20163;-87
2022/09/23 05:37:37;;;;;;;8.20;4.07;;;12.30;99.90;;;;;;4183316;28;20294;-91
2022/09/23 05:39:38;;;;;;;8.07;3.95;;;12.30;99.90;;;;;;4181412;28;20190;-87
2022/09/23 05:41:42;;;;;;;8.65;4.55;;;12.30;99.90;;;;;;4184258;28;20206;-87
2022/09/23 05:43:43;;;;;;;12.00;4.32;;;12.30;99.90;;;;;;4184030;28;20175;-88
2022/09/23 05:45:44;;;;;;;8.93;4.40;;;12.30;99.90;;;;;;4185476;28;20267;-88
2022/09/23 05:47:44;;;;;;;5.82;3.70;;;12.20;99.90;;;;;;4167579;28;20175;-87
2022/09/23 05:49:45;;;;;;;10.18;3.92;;;12.30;99.90;;;;;;4182371;28;20202;-87
2022/09/23 05:51:46;;;;;;;9.98;4.22;;;12.30;99.90;;;;;;4166285;28;20204;-87
2022/09/23 05:53:47;;;;;;;10.02;4.50;;;12.30;99.90;;;;;;4181314;28;20187;-86
2022/09/23 05:55:48;;;;;;;8.43;3.92;;;12.30;99.90;;;;;;4183632;28;20594;-87
2022/09/23 05:57:49;;;;;;;7.00;3.97;;;12.30;99.90;;;;;;4165501;28;20227;-87
2022/09/23 05:59:50;;;;;;;7.38;4.10;;;12.30;99.90;;;;;;4183141;28;20192;-85
2022/09/23 06:01:50;;;;;;;11.10;3.95;;;12.30;99.90;;;;;;4165448;28;20517;-87
2022/09/23 06:03:53;;;;;;;7.57;3.90;;;12.30;99.90;;;;;;4183009;28;20212;-87
2022/09/23 06:05:54;;;;;;;10.02;4.00;;;12.40;99.90;;;;;;4182574;28;20211;-87
2022/09/23 06:07:55;;;;;;;6.88;3.90;;;12.40;99.90;;;;;;4182954;28;20180;-88
2022/09/23 06:09:56;;;;;;;11.02;3.67;;;12.40;99.90;;;;;;4167989;28;20192;-87
2022/09/23 06:11:57;;;;;;;11.18;3.63;;;12.50;99.90;;;;;;4183255;28;20171;-87
2022/09/23 06:14:01;;;;;;;8.73;3.58;;;12.50;99.90;;;;;;4183331;28;20195;-87
2022/09/23 06:16:09;;;;;;;5.53;3.58;;;12.50;99.90;;;;;;4166298;28;20234;-87
2022/09/23 06:18:12;;;;;;;12.38;3.88;;;12.60;99.90;;;;;;4186486;28;20218;-89
2022/09/23 06:20:15;;;;;;;5.65;3.60;;;12.60;99.90;;;;;;4185818;28;20258;-87
2022/09/23 06:22:17;;;;;;;9.02;3.42;;;12.70;99.90;;;;;;4169317;28;20199;-87
2022/09/23 06:24:18;;;;;;;7.35;3.20;;;12.70;99.90;;;;;;4182150;28;20525;-86
2022/09/23 06:26:18;;;;;;;9.25;3.67;;;12.80;99.90;;;;;;4168730;28;20214;-87
2022/09/23 06:28:19;;;;;;;10.43;3.80;;;12.70;99.90;;;;;;4183517;28;20180;-87
2022/09/23 06:30:21;;;;;;;8.15;3.72;;;12.60;99.90;;;;;;4182136;28;20179;-86
2022/09/23 06:32:22;;;;;;;5.85;3.70;;;12.60;99.90;;;;;;4166666;28;20175;-87
2022/09/23 06:34:22;;;;;;;10.70;3.63;;;12.70;99.90;;;;;;4184619;28;20644;-87
2022/09/23 06:36:23;;;;;;;9.75;3.55;;;12.70;99.90;;;;;;4165796;28;20172;-87
2022/09/23 06:38:25;;;;;;;10.65;3.30;;;12.70;99.90;;;;;;4167326;28;20207;-87
2022/09/23 06:40:26;;;;;;;8.65;3.60;;;12.80;99.90;;;;;;4164878;28;20180;-87
2022/09/23 06:42:26;;;;;;;8.30;3.28;;;12.80;99.90;;;;;;4182906;28;20222;-96
2022/09/23 06:44:27;;;;;;;10.15;3.50;;;12.90;99.90;;;;;;4181620;28;20175;-95
2022/09/23 06:46:30;;;;;;;8.05;3.63;;;13.10;99.90;;;;;;4167555;28;20168;-87
2022/09/23 06:48:34;;;;;;;7.32;3.50;;;13.20;99.90;;;;;;4166083;28;20266;-87
2022/09/23 06:50:35;;;;;;;15.00;3.80;;;13.30;99.90;;;;;;4168311;28;20620;-87
2022/09/23 06:52:36;;;;;;;10.02;3.72;;;13.20;99.90;;;;;;4170856;28;20220;-87
2022/09/23 06:54:36;;;;;;;5.93;3.25;;;13.20;99.90;;;;;;4187986;28;20193;-87
2022/09/23 06:56:38;;;;;;;8.77;3.72;;;13.20;99.90;;;;;;4168589;28;20648;-87
2022/09/23 06:58:39;;;;;;;6.95;3.67;;;13.30;99.90;;;;;;4184322;28;20218;-87
2022/09/23 07:00:40;;;;;;;8.70;3.90;;;13.20;99.90;;;;;;4184732;28;20168;-87
2022/09/23 07:02:41;;;;;;;8.30;3.38;;;13.20;99.90;;;;;;4183931;28;20171;-87
2022/09/23 07:04:41;;;;;;;5.93;2.97;;;13.30;99.90;;;;;;4167228;28;20184;-87
2022/09/23 07:06:42;;;;;;;9.35;3.67;;;13.40;99.90;;;;;;4185833;28;20608;-88
2022/09/23 07:08:45;;;;;;;11.10;3.80;;;13.40;99.90;;;;;;4170148;28;20210;-87
2022/09/23 07:10:57;;;;;;;10.50;3.80;;;13.50;99.90;;;;;;4167493;28;20274;-87
2022/09/23 07:13:00;;;;;;;11.23;3.65;;;13.50;99.90;;;;;;4169239;28;20173;-87
2022/09/23 07:15:06;;;;;;;9.10;3.97;;;13.50;99.90;;;;;;4184247;28;20237;-86
2022/09/23 07:17:07;;;;;;;8.48;3.13;;;13.50;99.90;;;;;;4167398;28;20599;-87
2022/09/23 07:19:07;;;;;;;7.55;3.47;;;13.60;99.90;;;;;;4185144;28;20183;-87
2022/09/23 07:21:13;;;;;;;6.97;3.42;;;13.60;99.90;;;;;;4184326;28;20167;-87
2022/09/23 07:23:16;;;;;;;11.85;3.10;;;13.70;99.90;;;;;;4167990;28;20157;-88
2022/09/23 07:25:18;;;;;;;12.07;4.45;;;13.70;99.90;;;;;;4185947;28;20179;-87
2022/09/23 07:27:19;;;;;;;12.40;3.63;;;13.80;99.90;;;;;;4185652;28;20171;-87
2022/09/23 07:29:20;;;;;;;6.47;3.28;;;13.90;99.90;;;;;;4177120;28;20737;-87
2022/09/23 07:31:21;;;;;;;19.33;4.28;;;14.00;99.90;;;;;;4168848;28;20156;-87
2022/09/23 07:33:22;;;;;;;8.80;3.17;;;14.10;99.90;;;;;;4168869;28;20674;-87
2022/09/23 07:35:22;;;;;;;12.43;4.00;;;14.20;99.90;;;;;;4169350;28;20168;-89
2022/09/23 07:37:23;;;;;;;8.75;3.70;;;14.10;99.90;;;;;;4184352;28;20215;-87
2022/09/23 07:39:24;;;;;;;10.13;3.15;;;14.00;99.90;;;;;;4186608;28;20689;-87
2022/09/23 07:41:26;;;;;;;14.25;3.58;;;14.00;99.90;;;;;;4169774;28;20152;-87
2022/09/23 07:43:31;;;;;;;11.65;3.70;;;14.30;99.90;;;;;;4187291;28;20172;-88
2022/09/23 07:45:33;;;;;;;11.98;3.92;;;14.30;99.90;;;;;;4169186;28;20188;-87
2022/09/23 07:47:34;;;;;;;10.02;4.25;;;14.40;99.90;;;;;;4183507;28;20166;-87
2022/09/23 07:49:35;;;;;;;7.03;3.30;;;14.50;99.90;;;;;;4185723;28;20223;-87
2022/09/23 07:51:38;;;;;;;7.75;3.15;;;14.60;99.90;;;;;;4169528;28;20178;-87
2022/09/23 07:53:39;;;;;;;6.03;3.47;;;14.50;99.90;;;;;;4166961;28;20273;-87
2022/09/23 07:55:40;;;;;;;7.50;3.53;;;14.70;99.90;;;;;;4167790;28;20210;-87
2022/09/23 07:57:40;;;;;;;11.30;3.40;;;14.60;99.90;;;;;;4166738;28;20676;-87
2022/09/23 07:59:42;;;;;;;7.45;3.38;;;14.80;99.90;;;;;;4185145;28;20529;-92
2022/09/23 08:01:47;;;;;;;15.48;3.67;;;14.60;99.90;;;;;;4186892;28;20524;-87
2022/09/23 08:03:47;;;;;;;11.88;3.40;;;14.70;99.90;;;;;;4170748;28;20206;-88
2022/09/23 08:05:49;;;;;;;7.03;2.97;;;14.60;99.90;;;;;;4184246;28;20282;-87
2022/09/23 08:07:50;;;;;;;7.25;3.25;;;14.80;99.90;;;;;;4184494;28;20266;-87
2022/09/23 08:09:50;;;;;;;11.80;3.38;;;14.90;99.90;;;;;;4182722;28;20187;-87
2022/09/23 08:11:52;;;;;;;8.38;3.45;;;15.00;99.90;;;;;;4169110;28;20226;-86
2022/09/23 08:13:53;;;;;;;11.27;3.15;;;15.10;99.90;;;;;;4168079;28;20556;-87
2022/09/23 08:15:54;;;;;;;8.25;3.65;;;15.10;99.90;;;;;;4183682;28;20186;-87
2022/09/23 08:17:58;;;;;;;9.00;3.20;;;15.40;99.90;;;;;;4169622;28;20557;-87
2022/09/23 08:19:59;;;;;;;7.50;3.50;;;15.60;99.90;;;;;;4168700;28;20266;-87
2022/09/23 08:22:00;;;;;;;11.30;3.50;;;15.80;99.90;;;;;;4168136;28;20176;-87
2022/09/23 08:24:00;;;;;;;6.68;3.47;;;15.90;99.90;;;;;;4167798;28;20263;-87
2022/09/23 08:26:05;;;;;;;9.60;3.40;;;15.90;99.90;;;;;;4184151;28;20262;-87
2022/09/23 08:28:05;;;;;;;8.00;3.03;;;16.10;99.90;;;;;;4183811;28;20270;-87
2022/09/23 08:30:07;;;;;;;6.72;2.85;;;16.40;99.90;;;;;;4184080;28;20187;-88
2022/09/23 08:32:07;;;;;;;15.13;3.22;;;16.60;99.90;;;;;;4166520;28;20262;-87
2022/09/23 08:34:09;;;;;;;13.10;3.28;;;17.00;99.90;;;;;;4185982;28;20239;-87
2022/09/23 08:36:09;;;;;;;10.18;3.60;;;17.00;99.90;;;;;;4167181;28;20188;-87
2022/09/23 08:38:10;;;;;;;11.43;3.38;;;17.20;99.90;;;;;;4185519;28;20627;-87
2022/09/23 08:40:11;;;;;;;6.20;3.38;;;17.20;99.90;;;;;;4168121;28;20188;-88
2022/09/23 08:42:24;;;;;;;10.88;3.67;;;17.30;99.90;;;;;;4185339;28;20227;-87
2022/09/23 08:44:41;;;;;;;8.90;3.47;;;17.50;99.90;;;;;;4185256;28;20195;-87
2022/09/23 08:47:05;;;;;;;14.00;4.55;;;17.90;99.90;;;;;;4166568;28;20172;-96
2022/09/23 08:49:11;;;;;;;6.85;4.47;;;18.00;99.90;;;;;;4154998;28;20679;-94
2022/09/23 08:51:14;;;;;;;14.68;4.57;;;18.30;99.90;;;;;;4166001;28;20306;-96
2022/09/23 08:53:31;;;;;;;7.80;3.53;;;18.50;99.90;;;;;;4165931;28;20256;-89
2022/09/23 08:55:42;;;;;;;15.02;3.55;;;18.80;99.90;;;;;;4165881;28;20214;-95
2022/09/23 08:58:13;;;;;;;8.23;3.30;;;18.60;99.90;;;;;;4182417;28;20211;-89
2022/09/23 09:00:20;;;;;;;9.60;3.90;;;18.40;99.90;;;;;;4165722;28;20274;-87
2022/09/23 09:02:22;;;;;;;9.35;3.35;;;18.10;99.90;;;;;;4165667;28;20239;-92
2022/09/23 09:04:34;;;;;;;8.52;4.07;;;18.20;99.90;;;;;;4182070;28;20239;-87
2022/09/23 09:06:47;;;;;;;9.48;3.85;;;18.50;99.90;;;;;;4182127;28;20172;-87
2022/09/23 09:09:03;;;;;;;13.10;4.07;;;18.80;99.90;;;;;;4198374;28;20229;-87
2022/09/23 09:11:05;;;;;;;8.93;4.03;;;18.90;99.90;;;;;;4181916;28;20179;-86
2022/09/23 09:13:20;;;;;;;12.25;4.25;;;19.00;99.90;;;;;;4182069;28;20266;-86
2022/09/23 09:15:25;;;;;;;7.65;3.47;;;19.20;99.90;;;;;;4182120;28;20269;-87
2022/09/23 09:17:37;;;;;;;17.63;4.40;;;19.40;99.90;;;;;;4223829;22;20548;-92
2022/09/23 09:19:52;;;;;;;7.93;4.47;;;19.20;99.90;;;;;;4165486;28;20203;-92
2022/09/23 09:21:54;;;;;;;14.50;6.43;;;19.00;99.90;;;;;;4149156;28;20212;-90
2022/09/23 09:23:57;;;;;;;14.02;4.53;;;18.70;99.90;;;;;;4148700;28;20568;-91
2022/09/23 09:26:00;;;;;;;10.27;4.53;;;18.70;99.90;;;;;;4148544;28;20289;-90
2022/09/23 09:28:10;;;;;;;16.02;4.80;;;18.90;99.90;;;;;;4165208;28;20203;-91
2022/09/23 09:30:15;;;;;;;10.32;4.57;;;19.20;99.90;;;;;;4148974;28;20251;-92
2022/09/23 09:32:20;;;;;;;10.23;4.13;;;19.30;99.90;;;;;;4148584;28;20211;-92
2022/09/23 09:34:36;;;;;;;11.52;4.47;;;19.30;99.90;;;;;;4164930;28;20240;-93
2022/09/23 09:37:07;;;;;;;10.45;4.13;;;19.40;99.90;;;;;;4148720;28;20735;-93
2022/09/23 09:39:13;;;;;;;11.13;3.92;;;19.30;99.90;;;;;;4148355;28;20200;-92
2022/09/23 09:41:16;;;;;;;7.90;3.42;;;19.30;99.90;;;;;;4148636;28;20176;-93
2022/09/23 09:43:22;;;;;;;9.88;3.60;;;19.50;99.90;;;;;;4148642;28;20525;-91
2022/09/23 09:45:36;;;;;;;8.43;3.53;;;20.00;99.90;;;;;;4165018;28;20210;-93
2022/09/23 09:47:50;;;;;;;8.90;2.80;;;20.30;99.90;;;;;;4148421;28;20195;-92
2022/09/23 09:50:05;;;;;;;8.77;3.15;;;20.70;99.90;;;;;;4148840;28;20243;-92
2022/09/23 09:52:21;;;;;;;10.50;2.85;;;21.10;99.90;;;;;;4148628;28;20596;-94
2022/09/23 09:54:25;;;;;;;8.00;3.10;;;21.00;99.90;;;;;;4148894;28;20279;-92
2022/09/23 09:56:34;;;;;;;6.93;2.80;;;21.30;99.90;;;;;;4148489;28;20204;-91
2022/09/23 09:58:48;;;;;;;13.70;2.97;;;21.10;99.90;;;;;;4148374;28;20212;-92
2022/09/23 10:00:51;;;;;;;6.95;3.25;;;20.80;99.90;;;;;;4148752;28;20176;-93
2022/09/23 10:02:54;;;;;;;11.30;3.45;;;20.40;99.90;;;;;;4148507;28;20173;-91
2022/09/23 10:05:01;;;;;;;6.85;3.30;;;20.40;99.90;;;;;;4164849;28;20544;-91
2022/09/23 10:07:06;;;;;;;10.15;3.50;;;20.80;99.90;;;;;;4148606;28;20167;-92
2022/09/23 10:09:16;;;;;;;12.80;3.28;;;20.90;99.90;;;;;;4148536;28;20199;-92
2022/09/23 10:11:17;;;;;;;6.43;3.35;;;20.60;99.90;;;;;;4149280;28;20565;-93
2022/09/23 10:13:19;;;;;;;8.68;3.10;;;20.40;99.90;;;;;;4149994;28;20176;-91
2022/09/23 10:15:33;;;;;;;13.32;2.70;;;20.30;99.90;;;;;;4164080;28;20176;-92
2022/09/23 10:17:37;;;;;;;8.95;3.05;;;20.10;99.90;;;;;;4167511;28;20243;-90
2022/09/23 10:19:45;;;;;;;5.15;2.78;;;20.20;99.90;;;;;;4165184;28;20199;-92
2022/09/23 10:21:59;;;;;;;4.97;3.13;;;20.10;99.90;;;;;;4148741;28;20168;-91
2022/09/23 10:24:01;;;;;;;5.97;3.00;;;20.60;99.90;;;;;;4148074;28;20207;-91
2022/09/23 10:26:06;;;;;;;12.90;3.33;;;20.80;99.90;;;;;;4165030;28;20568;-92
2022/09/23 10:28:32;;;;;;;5.20;2.60;;;21.10;99.90;;;;;;4164895;28;20172;-92
2022/09/23 10:30:37;;;;;;;7.47;3.15;;;21.40;99.90;;;;;;4141161;28;20692;-92
2022/09/23 10:32:43;;;;;;;6.03;3.25;;;21.60;99.90;;;;;;4164698;28;20218;-92
2022/09/23 10:34:49;;;;;;;5.85;2.97;;;21.80;99.90;;;;;;4148141;28;20168;-92
2022/09/23 10:37:10;;;;;;;9.52;2.90;;;21.70;99.90;;;;;;4147904;28;20179;-92
2022/09/23 10:47:05;;;;;;;5.88;2.80;;;21.70;99.90;;;;;;4180986;28;20179;-92
2022/09/23 10:49:48;;;;;;;6.78;2.90;;;21.80;99.90;;;;;;4147972;28;20208;-93
2022/09/23 10:52:08;;;;;;;6.63;3.05;;;21.70;99.90;;;;;;4164530;28;20812;-92
2022/09/23 10:54:36;;;;;;;5.13;2.65;;;21.50;99.90;;;;;;4147945;28;20303;-91
2022/09/23 10:56:48;;;;;;;9.57;3.08;;;21.70;99.90;;;;;;4147761;28;20172;-92
2022/09/23 10:58:58;;;;;;;8.32;3.38;;;21.70;99.90;;;;;;4147953;28;20297;-92
2022/09/23 11:01:28;;;;;;;7.95;3.13;;;21.30;99.90;;;;;;4147975;28;20187;-92
2022/09/23 11:03:37;;;;;;;9.02;3.08;;;21.30;99.90;;;;;;4164197;28;20262;-91